Lapu-lapu / Mactan, Philippines

7:45 AM +08 on March 30, 2017 (GMT +0800)
Bankal, Lapu-Lapu City | | Change Station

Elev 10 ft 10.31 °N, 123.99 °E | Updated 11 minutes ago

Rain
Rain
80.8 °F
Feels Like 87 °F
N
1.0
Wind Variable Wind from East
Gusts 7.0 mph

Today
High -- | Low -- °F
--% Chance of Precip.
Yesterday
High -- | Low -- °F
Precip. -- in
Pressure 29.98 in
Visibility 6.2 miles
Clouds Scattered Clouds 2000 ft
Overcast 8000 ft
Heat Index 87 °F
Dew Point 77 °F
Humidity 88%
Rainfall 0.00 in
Snow Depth Not available.
5:42 AM 5:54 PM
Waxing Crescent, 5% visible
METAR RPVM 292300Z 36009KT 9999 -RA SCT020 OVC080 27/25 Q1015 NOSIG RMK A2997
Pressure 29.98 in
Visibility 6.2 miles
Clouds Scattered Clouds 2000 ft
Overcast 8000 ft
Heat Index 87 °F
Dew Point 77 °F
Humidity 88%
Rainfall 0.00 in
Snow Depth Not available.
5:42 AM 5:54 PM
Waxing Crescent, 5% visible
METAR RPVM 292300Z 36009KT 9999 -RA SCT020 OVC080 27/25 Q1015 NOSIG RMK A2997

Get Severe Weather Alerts

Thanks for signing up!

Be on the lookout for a verification email in your inbox.

You'll start receiving the daily forecast at 8 AM.

×

10-Day Weather Forecast

No radar image for this location.
×

Almanac

Astronomy

Mar. 30, 2017 Rise Set
Actual Time
Civil Twilight
Nautical Twilight
Astronomical Twilight
Moon
Length of Visible Light
Length of Day
Tomorrow will be .
, % of the Moon is Illuminated

Today's Extremes

Country Highs Country Lows

Community

WunderPhotos

Upload Photos

1,962,540 photos uploaded!

WunderBlog® & News

Nearby

Air Quality

  Air Quality AQ Index Pollutant
Not available.

Snow Depth

Station Depth Elevation

Earthquake Activity

City Distance Mag. Time & Date
Minimum magnitude displayed is 2.5.

Earthquake Activity

City Distance Mag. Time & Date
Minimum magnitude displayed is 2.5.

Coastal Water Temperatures

Place Temperature

Stations

Nearby Weather Stations

Station Location Temp. Windchill Dew Point Humidity Wind Precip. Elev Updated Type